Bearden, Oklahoma
Current Conditions -  °F | °C
As of 5:55 PM on Monday 22 Dec 2014 (Local Time) from KOKM Reporting Station
Clear Clear  
Wind Chill: 11°   Ceiling: Unl
Heat Index: 11°   Visibility: 10mi
Dew Point:   Wind: 10mph
Humidity: 70%   Direction: 280°W
Pressure: 29.62"   Gusts: NA
Location:  35.469°N, 96.2923°W
Report Text: KOKM 222355Z AUTO 28009KT 10SM CLR 11/05 A2962 RMK AO2 T01060053 10130 20106
Loading
Personal Weather Stations






























Interactive Weather Map New forecast layout! Learn more

10-Day Weather Forecast

Advertisements
Track Severe Weather on mobile